Date,TemperatureHighF,TemperatureAvgF,TemperatureLowF,DewpointHighF,DewpointAvgF,DewpointLowF,HumidityHigh,HumidityAvg,HumidityLow,PressureMaxIn,PressureMinIn,WindSpeedMaxMPH,WindSpeedAvgMPH,GustSpeedMaxMPH,PrecipitationSumIn
2013-2-1,27,22,18,16,11,7,76,62,47,30.13,29.59,15,2,18,0.00
2013-2-2,26,19,10,16,8,5,87,65,44,30.24,30.04,13,1,13,0.00
2013-2-3,28,20,14,14,13,9,89,73,52,30.06,29.77,8,0,8,0.00
2013-2-4,24,19,13,17,12,6,89,72,50,29.95,29.77,15,2,15,0.00
2013-2-5,26,20,12,19,12,8,87,71,54,30.02,29.90,7,0,7,0.00
2013-2-6,33,25,16,25,15,-100,90,68,42,30.35,29.89,11,-9,12,0.00
2013-2-7,27,19,10,9,4,-100,83,57,42,30.55,30.34,12,-23,12,0.00
2013-2-8,30,26,20,22,16,-100,90,71,46,30.40,29.79,24,-6,26,0.00
2013-2-9,21,15,10,19,2,-100,92,65,43,30.35,29.82,22,-43,22,0.00
2013-2-10,28,12,-4,9,-3,-100,85,62,38,30.53,30.30,6,-48,6,0.01
2013-2-11,45,36,12,40,28,3,95,77,31,30.30,29.65,25,2,25,0.39
2013-2-12,36,34,31,31,28,25,89,78,73,29.91,29.68,16,2,17,0.00
2013-2-13,36,31,28,27,24,21,84,74,57,29.88,29.73,9,1,9,0.00
2013-2-14,39,30,20,24,22,17,89,73,54,29.97,29.72,8,1,8,0.00
2013-2-15,47,38,29,31,28,23,90,68,51,30.00,29.90,14,1,14,0.00
2013-2-16,32,28,22,28,20,8,93,72,54,30.01,29.82,7,1,8,0.04
2013-2-17,24,18,11,9,4,0,68,55,39,29.88,29.61,23,3,23,0.00
2013-2-18,25,15,6,9,1,-100,73,57,36,30.20,29.88,12,-9,12,0.00
2013-2-19,44,31,17,35,22,6,95,71,46,30.18,29.62,20,2,20,0.42
2013-2-20,33,24,23,31,10,-100,95,69,57,29.88,29.64,16,-71,19,0.03
2013-2-21,24,21,18,17,13,8,83,71,61,30.40,29.85,13,2,13,0.00
2013-2-22,36,28,17,26,20,13,88,74,60,30.44,30.26,13,1,14,0.00
2013-2-23,37,35,33,31,29,23,83,78,64,30.27,29.87,12,3,14,0.00
2013-2-24,36,33,30,34,31,28,100,92,79,29.96,29.77,12,1,12,0.09
2013-2-25,37,32,28,30,28,25,93,85,74,30.25,29.96,5,0,5,0.08
2013-2-26,41,34,25,30,27,23,93,75,62,30.32,30.06,22,2,22,0.00
2013-2-27,41,37,32,36,32,26,93,82,68,30.06,29.55,42,7,42,0.52
2013-2-28,42,37,34,37,33,30,94,87,77,29.62,29.55,7,0,7,0.06